createdAt,value
2023-02-11T00:02:17.856Z,1.70
2023-02-11T00:04:53.374Z,1.80
2023-02-11T00:07:21.468Z,1.80
2023-02-11T00:09:49.562Z,1.90
2023-02-11T00:12:20.616Z,1.90
2023-02-11T00:14:49.212Z,1.90
2023-02-11T00:17:17.732Z,1.90
2023-02-11T00:19:48.272Z,1.90
2023-02-11T00:25:04.447Z,1.80
2023-02-11T00:27:33.948Z,1.80
2023-02-11T00:30:02.664Z,1.70
2023-02-11T00:32:32.115Z,1.70
2023-02-11T00:35:00.506Z,1.60
2023-02-11T00:37:29.925Z,1.60
2023-02-11T00:39:58.859Z,1.60
2023-02-11T00:42:27.244Z,1.60
2023-02-11T00:44:56.932Z,1.70
2023-02-11T00:47:24.994Z,1.70
2023-02-11T00:49:53.334Z,1.70
2023-02-11T00:52:21.299Z,1.80
2023-02-11T00:54:49.607Z,1.80
2023-02-11T00:57:19.738Z,1.90
2023-02-11T00:59:50.204Z,1.90
2023-02-11T01:02:21.860Z,2.00
2023-02-11T01:07:38.266Z,2.10
2023-02-11T01:10:06.498Z,2.10
2023-02-11T01:12:36.501Z,2.10
2023-02-11T01:15:05.443Z,2.30
2023-02-11T01:17:40.619Z,2.30
2023-02-11T01:20:10.345Z,2.30
2023-02-11T01:22:40.942Z,2.40
2023-02-11T01:25:09.382Z,2.30
2023-02-11T01:27:45.032Z,2.30
2023-02-11T01:30:14.034Z,2.40
2023-02-11T01:32:47.925Z,2.40
2023-02-11T01:35:15.892Z,2.50
2023-02-11T01:37:43.997Z,2.50
2023-02-11T01:40:15.451Z,2.60
2023-02-11T01:42:43.791Z,2.60
2023-02-11T01:45:31.955Z,2.70
2023-02-11T01:48:03.000Z,2.80
2023-02-11T01:50:33.303Z,2.80
2023-02-11T01:53:22.022Z,2.80
2023-02-11T01:56:08.238Z,2.80
2023-02-11T01:58:40.193Z,2.80
2023-02-11T02:01:09.496Z,2.80
2023-02-11T02:03:44.484Z,2.80
2023-02-11T02:06:16.486Z,2.80
2023-02-11T02:08:46.848Z,2.80
2023-02-11T02:11:15.000Z,2.90
2023-02-11T02:13:43.311Z,2.80
2023-02-11T02:16:14.275Z,2.80
2023-02-11T02:18:51.129Z,2.80
2023-02-11T02:21:47.299Z,2.80
2023-02-11T02:24:31.153Z,2.80
2023-02-11T02:27:18.655Z,2.70
2023-02-11T02:30:04.592Z,2.80
2023-02-11T02:32:44.364Z,2.80
2023-02-11T02:35:17.079Z,2.80
2023-02-11T02:37:50.722Z,2.70
2023-02-11T02:40:22.129Z,2.70
2023-02-11T02:42:53.604Z,2.60
2023-02-11T02:45:22.241Z,2.70
2023-02-11T02:47:53.184Z,2.70
2023-02-11T02:50:28.101Z,2.70
2023-02-11T02:53:05.022Z,2.70
2023-02-11T02:55:45.389Z,2.80
2023-02-11T02:58:37.133Z,2.80
2023-02-11T03:01:09.668Z,2.80
2023-02-11T03:03:42.907Z,2.90
2023-02-11T03:06:14.334Z,2.90
2023-02-11T03:08:45.357Z,2.90
2023-02-11T03:11:15.862Z,2.90
2023-02-11T03:13:45.450Z,2.90
2023-02-11T03:16:15.990Z,3.00
2023-02-11T03:18:47.046Z,2.90
2023-02-11T03:21:17.990Z,2.90
2023-02-11T03:23:52.166Z,2.90
2023-02-11T03:26:24.309Z,2.90
2023-02-11T03:28:56.768Z,3.00
2023-02-11T03:31:31.755Z,3.00
2023-02-11T03:34:04.051Z,3.00
2023-02-11T03:36:34.894Z,3.00
2023-02-11T03:39:27.929Z,3.00
2023-02-11T03:41:57.217Z,2.90
2023-02-11T03:44:29.059Z,2.90
2023-02-11T03:47:00.960Z,2.80
2023-02-11T03:49:31.715Z,2.80
2023-02-11T03:52:01.718Z,2.80
2023-02-11T03:54:31.346Z,2.80
2023-02-11T03:57:00.868Z,2.70
2023-02-11T03:59:28.866Z,2.60
2023-02-11T04:01:57.907Z,2.60
2023-02-11T04:04:26.785Z,2.50
2023-02-11T04:06:57.883Z,2.50
2023-02-11T04:09:25.802Z,2.50
2023-02-11T04:11:54.263Z,2.50
2023-02-11T04:14:22.727Z,2.50
2023-02-11T04:16:51.055Z,2.50
2023-02-11T04:19:24.000Z,2.40
2023-02-11T04:21:52.261Z,2.40
2023-02-11T04:24:23.128Z,2.40
2023-02-11T04:26:51.904Z,2.50
2023-02-11T04:29:20.284Z,2.50
2023-02-11T04:31:48.351Z,2.50
2023-02-11T04:34:17.100Z,2.60
2023-02-11T04:36:59.347Z,2.70
2023-02-11T04:39:29.693Z,2.70
2023-02-11T04:41:57.952Z,2.80
2023-02-11T04:44:26.841Z,2.80
2023-02-11T04:46:56.632Z,2.80
2023-02-11T04:49:26.072Z,2.70
2023-02-11T04:51:54.523Z,2.80
2023-02-11T04:54:22.542Z,2.70
2023-02-11T04:56:52.432Z,2.80
2023-02-11T04:59:20.784Z,2.80
2023-02-11T05:01:49.560Z,2.70
2023-02-11T05:04:18.377Z,2.80
2023-02-11T05:06:46.633Z,2.70
2023-02-11T05:09:15.030Z,2.70
2023-02-11T05:11:43.582Z,2.80
2023-02-11T05:14:13.764Z,2.80
2023-02-11T05:16:42.045Z,2.80
2023-02-11T05:19:10.155Z,2.70
2023-02-11T05:21:38.344Z,2.70
2023-02-11T05:24:07.166Z,2.70
2023-02-11T05:26:35.385Z,2.70
2023-02-11T05:29:03.364Z,2.60
2023-02-11T05:31:33.774Z,2.60
2023-02-11T05:34:04.542Z,2.60
2023-02-11T05:36:33.528Z,2.60
2023-02-11T05:39:03.264Z,2.70
2023-02-11T05:41:31.861Z,2.60
2023-02-11T05:43:59.733Z,2.60
2023-02-11T05:46:27.907Z,2.60
2023-02-11T05:48:58.053Z,2.70
2023-02-11T05:51:28.542Z,2.70
2023-02-11T05:53:56.693Z,2.70
2023-02-11T05:56:24.710Z,2.70
2023-02-11T05:58:53.175Z,2.80
2023-02-11T06:01:21.132Z,2.80
2023-02-11T06:03:50.314Z,2.80
2023-02-11T06:06:20.153Z,2.90
2023-02-11T06:08:48.216Z,2.90
2023-02-11T06:11:16.574Z,2.90
2023-02-11T06:13:44.899Z,3.00
2023-02-11T06:16:13.018Z,3.00
2023-02-11T06:18:41.082Z,3.00
2023-02-11T06:21:09.163Z,3.00
2023-02-11T06:23:38.803Z,2.90
2023-02-11T06:26:08.252Z,2.90
2023-02-11T06:28:39.985Z,2.80
2023-02-11T06:31:10.424Z,2.80
2023-02-11T06:33:38.827Z,2.70
2023-02-11T06:36:13.378Z,2.70
2023-02-11T06:38:43.230Z,2.70
2023-02-11T06:41:11.982Z,2.80
2023-02-11T06:43:40.431Z,2.80
2023-02-11T06:46:09.180Z,2.70
2023-02-11T06:48:37.560Z,2.80
2023-02-11T06:51:22.309Z,2.80
2023-02-11T06:53:51.647Z,2.80
2023-02-11T06:56:20.904Z,2.90
2023-02-11T06:58:49.049Z,2.80
2023-02-11T07:01:17.329Z,2.70
2023-02-11T07:03:46.368Z,2.70
2023-02-11T07:06:15.954Z,2.70
2023-02-11T07:08:45.978Z,2.70
2023-02-11T07:11:16.473Z,2.70
2023-02-11T07:13:44.797Z,2.70
2023-02-11T07:16:14.109Z,2.70
2023-02-11T07:18:43.153Z,2.80
2023-02-11T07:21:12.990Z,3.00
2023-02-11T07:23:41.858Z,3.10
2023-02-11T07:26:11.223Z,3.30
2023-02-11T07:28:41.281Z,3.40
2023-02-11T07:31:11.560Z,3.60
2023-02-11T07:33:40.129Z,3.80
2023-02-11T07:36:09.295Z,3.90
2023-02-11T07:38:38.161Z,3.90
2023-02-11T07:41:07.676Z,4.00
2023-02-11T07:43:37.507Z,4.10
2023-02-11T07:46:07.735Z,4.00
2023-02-11T07:48:36.234Z,3.90
2023-02-11T07:51:07.857Z,3.80
2023-02-11T07:53:36.414Z,3.80
2023-02-11T07:56:05.495Z,3.80
2023-02-11T07:58:34.296Z,3.80
2023-02-11T08:01:04.519Z,4.00
2023-02-11T08:03:34.897Z,4.20
2023-02-11T08:06:04.513Z,4.50
2023-02-11T08:08:32.729Z,4.90
2023-02-11T08:11:06.512Z,5.40
2023-02-11T08:13:36.189Z,5.70
2023-02-11T08:16:04.945Z,6.00
2023-02-11T08:18:35.101Z,6.30
2023-02-11T08:21:05.994Z,6.50
2023-02-11T08:23:34.294Z,6.60
2023-02-11T08:26:02.876Z,6.30
2023-02-11T08:28:33.164Z,6.20
2023-02-11T08:31:06.540Z,6.20
2023-02-11T08:33:36.499Z,6.30
2023-02-11T08:36:09.179Z,6.50
2023-02-11T08:38:37.856Z,6.50
2023-02-11T08:41:06.552Z,6.70
2023-02-11T08:43:36.148Z,6.90
2023-02-11T08:46:06.094Z,7.10
2023-02-11T08:48:34.409Z,7.30
2023-02-11T08:51:06.695Z,7.50
2023-02-11T08:53:35.009Z,7.70
2023-02-11T08:56:03.711Z,7.80
2023-02-11T08:58:31.865Z,7.60
2023-02-11T09:01:00.906Z,7.20
2023-02-11T09:03:29.915Z,7.20
2023-02-11T09:05:58.662Z,7.30
2023-02-11T09:08:28.480Z,7.50
2023-02-11T09:10:57.530Z,7.70
2023-02-11T09:13:25.524Z,7.60
2023-02-11T09:15:53.558Z,7.50
2023-02-11T09:18:22.437Z,7.60
2023-02-11T09:20:51.029Z,7.50
2023-02-11T09:23:19.386Z,7.70
2023-02-11T09:25:49.169Z,7.60
2023-02-11T09:28:17.725Z,7.50
2023-02-11T09:30:45.938Z,7.40
2023-02-11T09:33:13.982Z,7.40
2023-02-11T09:35:42.968Z,7.30
2023-02-11T09:38:11.216Z,7.30
2023-02-11T09:40:45.211Z,7.50
2023-02-11T09:43:21.286Z,7.50
2023-02-11T09:45:50.208Z,7.60
2023-02-11T09:48:23.801Z,7.60
2023-02-11T09:50:53.697Z,7.60
2023-02-11T09:53:23.946Z,7.50
2023-02-11T09:55:56.636Z,7.60
2023-02-11T09:58:36.554Z,7.40
2023-02-11T10:01:10.151Z,7.20
2023-02-11T10:03:53.441Z,7.10
2023-02-11T10:06:31.064Z,7.50
2023-02-11T10:09:04.715Z,8.10
2023-02-11T10:11:35.816Z,8.30
2023-02-11T10:14:14.275Z,8.20
2023-02-11T10:16:49.636Z,8.40
2023-02-11T10:19:26.406Z,8.50
2023-02-11T10:21:58.854Z,8.20
2023-02-11T10:24:28.717Z,8.10
2023-02-11T10:26:59.704Z,8.00
2023-02-11T10:29:36.081Z,7.80
2023-02-11T10:32:08.435Z,7.60
2023-02-11T10:34:40.136Z,7.70
2023-02-11T10:37:09.476Z,7.80
2023-02-11T10:39:40.185Z,7.80
2023-02-11T10:42:12.017Z,7.90
2023-02-11T10:44:44.583Z,8.00
2023-02-11T10:47:14.519Z,8.10
2023-02-11T10:49:44.181Z,8.00
2023-02-11T10:52:30.858Z,8.10
2023-02-11T10:55:00.395Z,8.20
2023-02-11T10:57:30.354Z,8.20
2023-02-11T11:00:01.774Z,8.10
2023-02-11T11:02:34.484Z,8.40
2023-02-11T11:05:05.039Z,8.40
2023-02-11T11:07:34.596Z,8.30
2023-02-11T11:10:04.178Z,8.30
2023-02-11T11:12:42.082Z,8.40
2023-02-11T11:15:20.281Z,8.30
2023-02-11T11:17:50.244Z,8.30
2023-02-11T11:20:28.224Z,8.30
2023-02-11T11:23:11.472Z,8.30
2023-02-11T11:25:41.557Z,8.20
2023-02-11T11:28:18.602Z,8.10
2023-02-11T11:30:49.188Z,8.30
2023-02-11T11:33:21.156Z,8.60
2023-02-11T11:36:00.506Z,8.90
2023-02-11T11:38:29.415Z,9.10
2023-02-11T11:41:17.107Z,9.40
2023-02-11T11:43:55.184Z,9.70
2023-02-11T11:46:28.624Z,9.90
2023-02-11T11:49:00.133Z,9.80
2023-02-11T11:51:29.500Z,9.60
2023-02-11T11:53:59.689Z,9.40
2023-02-11T11:56:30.083Z,9.20
2023-02-11T11:58:58.341Z,9.10
2023-02-11T12:01:35.342Z,8.90
2023-02-11T12:04:22.173Z,8.90
2023-02-11T12:06:55.965Z,9.00
2023-02-11T12:09:31.487Z,8.90
2023-02-11T12:12:07.278Z,9.10
2023-02-11T12:14:41.994Z,9.10
2023-02-11T12:17:16.082Z,9.30
2023-02-11T12:19:52.464Z,9.40
2023-02-11T12:22:26.922Z,9.40
2023-02-11T12:25:01.275Z,9.30
2023-02-11T12:27:37.358Z,9.40
2023-02-11T12:30:10.867Z,9.50
2023-02-11T12:32:46.688Z,9.50
2023-02-11T12:35:24.507Z,9.40
2023-02-11T12:38:11.414Z,9.60
2023-02-11T12:40:43.636Z,9.50
2023-02-11T12:43:18.478Z,9.30
2023-02-11T12:46:06.358Z,9.20
2023-02-11T12:48:41.200Z,9.30
2023-02-11T12:51:14.400Z,9.30
2023-02-11T12:53:47.143Z,9.40
2023-02-11T12:56:18.746Z,9.40
2023-02-11T12:58:47.969Z,9.60
2023-02-11T13:01:19.706Z,9.50
2023-02-11T13:03:52.710Z,9.40
2023-02-11T13:06:24.131Z,9.30
2023-02-11T13:08:54.675Z,9.30
2023-02-11T13:11:25.760Z,9.30
2023-02-11T13:13:56.758Z,9.40
2023-02-11T13:16:31.546Z,9.60
2023-02-11T13:19:05.208Z,9.80
2023-02-11T13:21:38.243Z,9.90
2023-02-11T13:24:12.854Z,9.80
2023-02-11T13:26:43.385Z,9.80
2023-02-11T13:29:16.159Z,9.80
2023-02-11T13:31:44.273Z,9.80
2023-02-11T13:34:27.007Z,9.60
2023-02-11T13:36:58.828Z,9.60
2023-02-11T13:39:27.360Z,9.60
2023-02-11T13:42:03.664Z,9.40
2023-02-11T13:44:35.445Z,9.30
2023-02-11T13:47:05.428Z,9.20
2023-02-11T13:49:37.024Z,9.20
2023-02-11T13:52:07.602Z,9.10
2023-02-11T13:54:38.115Z,9.10
2023-02-11T13:57:25.315Z,8.90
2023-02-11T13:59:54.956Z,9.00
2023-02-11T14:02:50.040Z,8.90
2023-02-11T14:05:42.816Z,9.00
2023-02-11T14:08:39.130Z,9.00
2023-02-11T14:11:12.835Z,8.90
2023-02-11T14:14:01.714Z,9.00
2023-02-11T14:16:38.059Z,9.00
2023-02-11T14:19:07.157Z,8.90
2023-02-11T14:21:38.170Z,8.70
2023-02-11T14:24:25.741Z,8.60
2023-02-11T14:26:58.167Z,8.60
2023-02-11T14:29:33.424Z,8.50
2023-02-11T14:32:05.977Z,8.40
2023-02-11T14:34:41.696Z,8.40
2023-02-11T14:37:20.343Z,8.40
2023-02-11T14:39:58.558Z,8.30
2023-02-11T14:42:28.469Z,8.30
2023-02-11T14:44:58.559Z,8.30
2023-02-11T14:47:30.653Z,8.30
2023-02-11T14:49:59.216Z,8.30
2023-02-11T14:52:30.302Z,8.10
2023-02-11T14:55:04.029Z,8.10
2023-02-11T14:57:32.149Z,8.10
2023-02-11T15:00:03.023Z,8.10
2023-02-11T15:02:35.806Z,7.90
2023-02-11T15:05:21.674Z,7.90
2023-02-11T15:07:52.735Z,7.90
2023-02-11T15:10:24.876Z,7.80
2023-02-11T15:12:53.538Z,7.80
2023-02-11T15:15:23.340Z,7.60
2023-02-11T15:17:51.727Z,7.60
2023-02-11T15:20:23.300Z,7.60
2023-02-11T15:22:55.770Z,7.60
2023-02-11T15:25:24.521Z,7.70
2023-02-11T15:27:56.843Z,7.70
2023-02-11T15:30:26.956Z,7.70
2023-02-11T15:32:58.813Z,7.60
2023-02-11T15:35:28.952Z,7.60
2023-02-11T15:38:00.296Z,7.60
2023-02-11T15:40:29.303Z,7.70
2023-02-11T15:42:59.178Z,7.70
2023-02-11T15:45:30.498Z,7.80
2023-02-11T15:48:07.507Z,7.80
2023-02-11T15:50:37.474Z,7.70
2023-02-11T15:53:20.706Z,7.70
2023-02-11T15:55:49.997Z,7.80
2023-02-11T15:58:18.625Z,7.80
2023-02-11T16:00:48.581Z,7.80
2023-02-11T16:03:24.011Z,7.70
2023-02-11T16:05:56.734Z,7.70
2023-02-11T16:08:31.693Z,7.70
2023-02-11T16:11:03.263Z,7.50
2023-02-11T16:13:34.181Z,7.40
2023-02-11T16:16:04.816Z,7.40
2023-02-11T16:18:39.840Z,7.30
2023-02-11T16:21:13.705Z,7.30
2023-02-11T16:23:51.024Z,7.20
2023-02-11T16:26:23.608Z,7.20
2023-02-11T16:28:52.066Z,7.20
2023-02-11T16:31:20.375Z,7.30
2023-02-11T16:33:48.977Z,7.40
2023-02-11T16:36:18.236Z,7.40
2023-02-11T16:38:47.988Z,7.40
2023-02-11T16:41:16.331Z,7.50
2023-02-11T16:43:44.560Z,7.50
2023-02-11T16:46:15.204Z,7.50
2023-02-11T16:48:43.772Z,7.50
2023-02-11T16:51:13.300Z,7.50
2023-02-11T16:53:42.919Z,7.50
2023-02-11T16:56:16.156Z,7.40
2023-02-11T16:58:44.271Z,7.50
2023-02-11T17:01:14.125Z,7.50
2023-02-11T17:03:43.860Z,7.40
2023-02-11T17:06:15.154Z,7.50
2023-02-11T17:08:44.407Z,7.60
2023-02-11T17:11:16.878Z,7.60
2023-02-11T17:13:45.054Z,7.50
2023-02-11T17:16:17.205Z,7.40
2023-02-11T17:18:45.514Z,7.40
2023-02-11T17:21:14.351Z,7.40
2023-02-11T17:23:42.707Z,7.40
2023-02-11T17:26:11.179Z,7.30
2023-02-11T17:28:43.786Z,7.20
2023-02-11T17:31:12.774Z,7.30
2023-02-11T17:33:41.131Z,7.30
2023-02-11T17:36:10.508Z,7.30
2023-02-11T17:38:39.713Z,7.30
2023-02-11T17:41:08.098Z,7.30
2023-02-11T17:43:36.817Z,7.30
2023-02-11T17:46:08.830Z,7.30
2023-02-11T17:48:38.448Z,7.30
2023-02-11T17:51:08.956Z,7.30
2023-02-11T17:53:37.571Z,7.30
2023-02-11T17:56:08.313Z,7.30
2023-02-11T17:58:36.732Z,7.20
2023-02-11T18:01:04.906Z,7.30
2023-02-11T18:03:34.639Z,7.30
2023-02-11T18:06:02.923Z,7.30
2023-02-11T18:08:31.041Z,7.40
2023-02-11T18:11:00.004Z,7.40
2023-02-11T18:13:29.951Z,7.40
2023-02-11T18:16:02.982Z,7.40
2023-02-11T18:18:33.982Z,7.40
2023-02-11T18:21:08.512Z,7.40
2023-02-11T18:23:37.129Z,7.40
2023-02-11T18:26:07.926Z,7.40
2023-02-11T18:28:36.044Z,7.40
2023-02-11T18:31:04.654Z,7.20
2023-02-11T18:33:34.908Z,7.10
2023-02-11T18:36:11.133Z,7.00
2023-02-11T18:38:40.449Z,7.00
2023-02-11T18:41:10.159Z,7.10
2023-02-11T18:43:39.906Z,7.20
2023-02-11T18:46:10.676Z,7.20
2023-02-11T18:48:39.407Z,7.30
2023-02-11T18:51:12.597Z,7.30
2023-02-11T18:53:41.054Z,7.30
2023-02-11T18:56:09.951Z,7.30
2023-02-11T18:58:38.795Z,7.30
2023-02-11T19:01:15.745Z,7.30
2023-02-11T19:03:45.551Z,7.30
2023-02-11T19:06:20.099Z,7.30
2023-02-11T19:08:48.721Z,7.20
2023-02-11T19:11:19.346Z,7.20
2023-02-11T19:13:48.890Z,7.20
2023-02-11T19:16:21.873Z,7.20
2023-02-11T19:18:51.369Z,7.20
2023-02-11T19:21:21.627Z,7.20
2023-02-11T19:23:51.916Z,7.10
2023-02-11T19:26:24.263Z,7.20
2023-02-11T19:28:52.504Z,7.10
2023-02-11T19:31:21.236Z,7.10
2023-02-11T19:33:49.328Z,7.20
2023-02-11T19:36:18.554Z,7.20
2023-02-11T19:38:48.393Z,7.20
2023-02-11T19:41:22.514Z,7.20
2023-02-11T19:43:54.390Z,7.20
2023-02-11T19:46:23.166Z,7.20
2023-02-11T19:48:51.811Z,7.20
2023-02-11T19:51:20.365Z,7.20
2023-02-11T19:53:51.327Z,7.20
2023-02-11T19:56:20.971Z,7.20
2023-02-11T19:58:57.477Z,7.30
2023-02-11T20:01:26.431Z,7.30
2023-02-11T20:03:56.939Z,7.30
2023-02-11T20:06:26.810Z,7.30
2023-02-11T20:09:00.623Z,7.10
2023-02-11T20:11:30.020Z,7.10
2023-02-11T20:13:59.248Z,7.20
2023-02-11T20:16:46.203Z,7.10
2023-02-11T20:19:18.622Z,7.00
2023-02-11T20:21:47.829Z,6.90
2023-02-11T20:24:18.563Z,6.90
2023-02-11T20:26:48.877Z,6.80
2023-02-11T20:29:18.612Z,6.80
2023-02-11T20:31:46.990Z,7.00
2023-02-11T20:34:17.518Z,7.00
2023-02-11T20:36:51.994Z,7.10
2023-02-11T20:39:22.922Z,7.10
2023-02-11T20:41:51.579Z,7.10
2023-02-11T20:44:22.052Z,7.20
2023-02-11T20:46:52.101Z,7.20
2023-02-11T20:49:21.491Z,7.20
2023-02-11T20:51:51.299Z,7.30
2023-02-11T20:54:21.699Z,7.20
2023-02-11T20:56:51.989Z,7.20
2023-02-11T20:59:22.146Z,7.10
2023-02-11T21:01:54.115Z,7.10
2023-02-11T21:04:24.182Z,7.00
2023-02-11T21:06:53.687Z,7.00
2023-02-11T21:09:23.901Z,7.10
2023-02-11T21:11:54.424Z,7.10
2023-02-11T21:14:23.470Z,7.00
2023-02-11T21:16:52.528Z,6.90
2023-02-11T21:19:21.860Z,6.80
2023-02-11T21:21:49.964Z,6.80
2023-02-11T21:24:20.997Z,6.70
2023-02-11T21:26:49.255Z,6.60
2023-02-11T21:29:19.497Z,6.60
2023-02-11T21:31:48.478Z,6.70
2023-02-11T21:34:17.318Z,6.60
2023-02-11T21:36:45.963Z,6.60
2023-02-11T21:39:15.335Z,6.70
2023-02-11T21:41:43.481Z,6.60
2023-02-11T21:44:12.021Z,6.60
2023-02-11T21:46:42.158Z,6.70
2023-02-11T21:49:11.419Z,6.70
2023-02-11T21:51:40.416Z,6.70
2023-02-11T21:54:08.633Z,6.80
2023-02-11T21:56:37.424Z,6.90
2023-02-11T21:59:05.625Z,7.00
2023-02-11T22:01:36.157Z,7.10
2023-02-11T22:04:07.656Z,7.20
2023-02-11T22:06:37.632Z,7.30
2023-02-11T22:09:08.352Z,7.40
2023-02-11T22:11:37.036Z,7.50
2023-02-11T22:14:05.491Z,7.60
2023-02-11T22:16:33.754Z,7.60
2023-02-11T22:19:02.643Z,7.70
2023-02-11T22:21:32.395Z,7.70
2023-02-11T22:24:00.956Z,7.80
2023-02-11T22:26:29.722Z,7.80
2023-02-11T22:28:58.186Z,7.80
2023-02-11T22:31:28.001Z,7.70
2023-02-11T22:33:56.725Z,7.60
2023-02-11T22:36:25.969Z,7.60
2023-02-11T22:38:56.913Z,7.60
2023-02-11T22:41:25.071Z,7.60
2023-02-11T22:43:55.273Z,7.50
2023-02-11T22:46:23.412Z,7.50
2023-02-11T22:48:51.961Z,7.40
2023-02-11T22:51:21.420Z,7.40
2023-02-11T22:53:50.959Z,7.30
2023-02-11T22:56:20.870Z,7.30
2023-02-11T22:58:51.082Z,7.40
2023-02-11T23:01:19.572Z,7.50
2023-02-11T23:03:47.702Z,7.40
2023-02-11T23:06:16.628Z,7.50
2023-02-11T23:08:48.083Z,7.50
2023-02-11T23:11:17.358Z,7.60
2023-02-11T23:13:50.600Z,7.60
2023-02-11T23:16:19.527Z,7.70
2023-02-11T23:18:49.413Z,7.70
2023-02-11T23:21:21.114Z,7.70
2023-02-11T23:23:49.791Z,7.80
2023-02-11T23:26:19.062Z,7.70
2023-02-11T23:28:49.201Z,7.60
2023-02-11T23:31:20.880Z,7.70
2023-02-11T23:33:53.497Z,7.70
2023-02-11T23:36:24.104Z,7.80
2023-02-11T23:38:52.138Z,7.70
2023-02-11T23:41:20.507Z,7.80
2023-02-11T23:43:52.266Z,7.80
2023-02-11T23:46:21.785Z,7.90
2023-02-11T23:48:50.449Z,7.90
2023-02-11T23:51:18.996Z,7.80
2023-02-11T23:53:50.081Z,7.60
2023-02-11T23:56:20.863Z,7.50
2023-02-11T23:58:49.575Z,7.50
